Time;durP1;ratioP1;P1;durP2;ratioP2;P2;SDS_P1;SDS_P2;PMS_P1;PMS_P2;Temp;Humidity;BMP_temperature;BMP_pressure;BME280_temperature;BME280_humidity;BME280_pressure;Samples;Min_cycle;Max_cycle;Signal;HPM_P1;HPM_P2
2022/08/31 00:04:30;;;;;;;1.80;0.85;;;22.60;55.40;;;;;;5075058;28;20570;-70
2022/08/31 00:06:56;;;;;;;0.95;0.82;;;22.60;55.50;;;;;;5075075;28;20172;-70
2022/08/31 00:09:21;;;;;;;0.63;0.63;;;22.60;55.60;;;;;;5074432;28;20170;-69
2022/08/31 00:11:47;;;;;;;2.17;0.90;;;22.60;55.50;;;;;;5074906;28;20166;-69
2022/08/31 00:14:13;;;;;;;1.75;0.93;;;22.60;55.50;;;;;;5074884;28;20625;-69
2022/08/31 00:16:39;;;;;;;1.50;1.00;;;22.60;55.60;;;;;;5074096;28;20170;-70
2022/08/31 00:19:05;;;;;;;1.08;0.90;;;22.60;55.60;;;;;;5074912;28;21455;-69
2022/08/31 00:21:31;;;;;;;2.33;0.77;;;22.60;55.60;;;;;;5074585;28;20169;-70
2022/08/31 00:23:56;;;;;;;1.65;1.00;;;22.60;55.60;;;;;;5073840;28;20214;-69
2022/08/31 00:26:22;;;;;;;1.67;1.02;;;22.60;56.20;;;;;;5073795;28;20189;-69
2022/08/31 00:28:48;;;;;;;1.05;0.75;;;22.60;55.60;;;;;;5074394;28;20225;-69
2022/08/31 00:31:14;;;;;;;1.73;0.90;;;22.60;55.70;;;;;;5073816;28;20194;-69
2022/08/31 00:33:40;;;;;;;0.90;0.88;;;22.60;55.70;;;;;;5074349;28;20293;-69
2022/08/31 00:36:07;;;;;;;0.80;0.80;;;22.60;55.70;;;;;;5074594;28;20167;-69
2022/08/31 00:38:33;;;;;;;0.70;0.70;;;22.60;55.60;;;;;;5073603;28;20227;-70
2022/08/31 00:40:58;;;;;;;3.22;1.10;;;22.60;55.70;;;;;;5074242;28;20228;-70
2022/08/31 00:43:39;;;;;;;1.02;0.93;;;22.60;55.70;;;;;;5074261;28;20666;-70
2022/08/31 00:46:04;;;;;;;0.70;0.70;;;22.60;55.70;;;;;;5073564;28;20177;-70
2022/08/31 00:48:30;;;;;;;0.98;0.82;;;22.50;55.70;;;;;;5074455;28;20174;-70
2022/08/31 00:50:56;;;;;;;2.55;0.95;;;22.60;55.80;;;;;;5074102;28;20198;-69
2022/08/31 00:53:21;;;;;;;1.05;1.00;;;22.50;55.70;;;;;;5073561;28;20643;-68
2022/08/31 00:55:47;;;;;;;0.88;0.70;;;22.50;55.70;;;;;;5055988;28;20179;-68
2022/08/31 00:58:12;;;;;;;1.75;0.82;;;22.50;55.70;;;;;;5073555;28;20259;-69
2022/08/31 01:00:39;;;;;;;0.90;0.88;;;22.60;55.80;;;;;;5056175;28;20618;-69
2022/08/31 01:03:05;;;;;;;2.13;1.10;;;22.50;55.80;;;;;;5052242;28;20220;-70
2022/08/31 01:05:30;;;;;;;3.50;0.90;;;22.50;55.80;;;;;;5055345;28;20629;-71
2022/08/31 01:07:56;;;;;;;1.48;0.95;;;22.50;55.80;;;;;;5073417;28;20224;-70
2022/08/31 01:10:23;;;;;;;1.55;0.80;;;22.50;55.80;;;;;;5056091;28;20181;-70
2022/08/31 01:12:50;;;;;;;1.10;0.90;;;22.50;55.70;;;;;;5055171;28;20170;-70
2022/08/31 01:15:16;;;;;;;0.80;0.80;;;22.50;55.80;;;;;;5055824;28;20253;-70
2022/08/31 01:17:42;;;;;;;2.30;1.30;;;22.50;55.80;;;;;;5073804;28;20316;-70
2022/08/31 01:20:20;;;;;;;1.25;1.05;;;22.50;55.80;;;;;;5055269;28;20179;-70
2022/08/31 01:23:07;;;;;;;0.77;0.77;;;22.50;55.90;;;;;;5040041;28;20181;-69
2022/08/31 01:25:34;;;;;;;1.58;0.65;;;22.50;55.80;;;;;;5071928;28;20692;-69
2022/08/31 01:28:01;;;;;;;1.58;0.95;;;22.40;55.80;;;;;;5054994;28;20185;-69
2022/08/31 01:30:27;;;;;;;0.85;0.70;;;22.50;55.80;;;;;;5055723;28;20178;-69
2022/08/31 01:32:52;;;;;;;1.48;1.10;;;22.50;55.80;;;;;;5073325;28;20169;-69
2022/08/31 01:35:18;;;;;;;0.80;0.80;;;22.50;55.80;;;;;;5072796;28;20175;-69
2022/08/31 01:37:43;;;;;;;3.15;1.00;;;22.50;55.90;;;;;;5072758;28;20194;-70
2022/08/31 01:40:10;;;;;;;0.98;0.93;;;22.50;55.90;;;;;;5073534;28;20232;-70
2022/08/31 01:42:35;;;;;;;0.88;0.88;;;22.50;55.90;;;;;;5072423;28;20175;-70
2022/08/31 01:45:02;;;;;;;1.20;0.95;;;22.50;55.90;;;;;;5072954;28;20190;-70
2022/08/31 01:47:28;;;;;;;1.17;1.05;;;22.50;56.00;;;;;;5068760;28;20170;-69
2022/08/31 01:49:53;;;;;;;1.02;0.93;;;22.50;56.00;;;;;;5072728;28;20173;-70
2022/08/31 01:52:19;;;;;;;1.40;0.98;;;22.40;55.90;;;;;;5072982;28;20209;-68
2022/08/31 01:54:44;;;;;;;1.67;0.95;;;22.50;55.90;;;;;;5072177;28;20174;-68
2022/08/31 01:57:10;;;;;;;1.45;0.80;;;22.50;56.00;;;;;;5073181;28;20162;-69
2022/08/31 01:59:36;;;;;;;0.75;0.75;;;22.50;56.00;;;;;;5072746;28;20676;-69
2022/08/31 02:02:01;;;;;;;0.80;0.80;;;22.40;56.00;;;;;;5072238;28;20182;-70
2022/08/31 02:04:27;;;;;;;1.60;1.05;;;22.50;56.00;;;;;;5072767;28;20179;-69
2022/08/31 02:06:53;;;;;;;0.88;0.88;;;22.40;56.00;;;;;;5072579;28;20177;-70
2022/08/31 02:09:19;;;;;;;0.75;0.75;;;22.40;56.00;;;;;;5072311;28;20190;-70
2022/08/31 02:11:45;;;;;;;1.02;1.00;;;22.40;56.00;;;;;;5072565;28;20174;-69
2022/08/31 02:14:11;;;;;;;0.80;0.80;;;22.40;56.00;;;;;;5072622;28;20252;-69
2022/08/31 02:16:37;;;;;;;0.80;0.80;;;22.40;56.00;;;;;;5071882;28;20185;-69
2022/08/31 02:19:03;;;;;;;1.17;1.00;;;22.50;56.10;;;;;;5072611;28;20679;-70
2022/08/31 02:21:29;;;;;;;0.80;0.80;;;22.40;56.10;;;;;;5072501;28;20170;-70
2022/08/31 02:23:54;;;;;;;2.00;0.80;;;22.40;56.10;;;;;;5071691;28;20293;-69
2022/08/31 02:26:20;;;;;;;0.70;0.70;;;22.40;56.10;;;;;;5072281;28;20245;-69
2022/08/31 02:28:45;;;;;;;1.13;0.63;;;22.40;56.10;;;;;;5072364;28;20170;-69
2022/08/31 02:31:11;;;;;;;1.08;0.98;;;22.40;56.10;;;;;;5071762;28;20174;-68
2022/08/31 02:33:37;;;;;;;1.02;1.00;;;22.40;56.00;;;;;;5072383;28;20180;-69
2022/08/31 02:36:03;;;;;;;0.85;0.85;;;22.40;56.10;;;;;;5072330;28;20253;-69
2022/08/31 02:38:30;;;;;;;1.15;0.93;;;22.40;56.10;;;;;;5071355;28;20297;-70
2022/08/31 02:40:55;;;;;;;1.35;0.90;;;22.40;56.20;;;;;;5072301;28;20186;-70
2022/08/31 02:43:21;;;;;;;0.77;0.77;;;22.40;56.10;;;;;;5072135;28;20178;-69
2022/08/31 02:45:47;;;;;;;0.85;0.85;;;22.40;56.20;;;;;;5071207;28;20212;-71
2022/08/31 02:48:13;;;;;;;1.23;1.15;;;22.50;56.20;;;;;;5072098;28;20171;-69
2022/08/31 02:50:43;;;;;;;1.20;0.95;;;22.40;56.10;;;;;;5071510;28;20167;-69
2022/08/31 02:53:09;;;;;;;1.00;0.90;;;22.40;56.10;;;;;;5068554;28;20174;-68
2022/08/31 02:55:35;;;;;;;1.05;0.98;;;22.40;56.20;;;;;;5072389;28;20175;-68
2022/08/31 02:58:00;;;;;;;1.20;1.10;;;22.40;56.10;;;;;;5071243;28;20919;-68
2022/08/31 03:00:26;;;;;;;1.02;0.80;;;22.30;56.10;;;;;;5072133;28;20257;-69
2022/08/31 03:02:51;;;;;;;1.15;1.05;;;22.30;56.10;;;;;;5072023;28;20177;-70
2022/08/31 03:05:17;;;;;;;0.93;0.93;;;22.30;56.10;;;;;;5071626;28;20182;-69
2022/08/31 03:07:42;;;;;;;1.23;1.13;;;22.30;56.20;;;;;;5071923;28;20629;-70
2022/08/31 03:10:10;;;;;;;1.38;0.90;;;22.30;56.20;;;;;;5072189;28;20183;-69
2022/08/31 03:12:36;;;;;;;1.10;0.90;;;22.30;56.20;;;;;;5071351;28;20674;-69
2022/08/31 03:15:03;;;;;;;0.80;0.80;;;22.30;56.10;;;;;;5071320;28;20171;-70
2022/08/31 03:17:29;;;;;;;0.95;0.93;;;22.30;56.20;;;;;;5071996;28;20253;-69
2022/08/31 03:20:00;;;;;;;1.00;0.90;;;22.30;56.20;;;;;;5070576;28;20281;-70
2022/08/31 03:22:26;;;;;;;1.00;0.90;;;22.30;56.20;;;;;;5072145;28;20170;-69
2022/08/31 03:24:52;;;;;;;0.88;0.88;;;22.30;56.20;;;;;;5071382;28;20759;-69
2022/08/31 03:27:17;;;;;;;0.88;0.80;;;22.30;56.20;;;;;;5071240;28;20262;-69
2022/08/31 03:29:43;;;;;;;1.17;0.80;;;22.30;56.20;;;;;;5071910;28;20205;-69
2022/08/31 03:32:08;;;;;;;0.70;0.70;;;22.30;56.30;;;;;;5073279;28;20257;-68
2022/08/31 03:34:34;;;;;;;0.98;0.90;;;22.30;56.20;;;;;;5074774;28;20189;-69
2022/08/31 03:36:59;;;;;;;0.80;0.80;;;22.30;56.20;;;;;;5075743;28;20175;-69
2022/08/31 03:39:25;;;;;;;1.35;1.00;;;22.30;56.20;;;;;;5075406;28;20672;-70
2022/08/31 03:41:50;;;;;;;1.25;0.80;;;22.30;56.20;;;;;;5074365;28;20174;-69
2022/08/31 03:44:22;;;;;;;0.60;0.60;;;22.30;56.30;;;;;;5075577;28;20696;-70
2022/08/31 03:46:54;;;;;;;0.90;0.90;;;22.20;56.20;;;;;;5073383;28;20242;-71
2022/08/31 03:49:23;;;;;;;0.90;0.70;;;22.30;56.20;;;;;;5075521;28;20566;-70
2022/08/31 03:51:50;;;;;;;0.75;0.75;;;22.30;56.20;;;;;;5075176;28;20166;-69
2022/08/31 03:54:17;;;;;;;0.88;0.80;;;22.30;56.20;;;;;;5074626;28;20882;-68
2022/08/31 03:56:42;;;;;;;1.17;0.70;;;22.20;56.20;;;;;;5074642;28;20166;-68
2022/08/31 03:59:08;;;;;;;0.95;0.95;;;22.30;56.20;;;;;;5075075;28;20205;-68
2022/08/31 04:01:34;;;;;;;0.98;0.68;;;22.20;56.20;;;;;;5074699;28;20173;-70
2022/08/31 04:04:00;;;;;;;0.80;0.75;;;22.20;56.20;;;;;;5075220;28;20173;-69
2022/08/31 04:06:25;;;;;;;0.80;0.80;;;22.20;56.20;;;;;;5075230;28;20653;-69
2022/08/31 04:08:51;;;;;;;1.05;0.82;;;22.20;56.20;;;;;;5074399;28;20257;-69
2022/08/31 04:11:17;;;;;;;0.88;0.88;;;22.20;56.20;;;;;;5075163;28;20162;-69
2022/08/31 04:13:42;;;;;;;0.70;0.70;;;22.20;56.30;;;;;;5074887;28;20549;-69
2022/08/31 04:16:10;;;;;;;0.70;0.70;;;22.20;56.20;;;;;;5074013;28;20254;-69
2022/08/31 04:18:37;;;;;;;1.42;0.90;;;22.20;56.20;;;;;;5074823;28;20214;-69
2022/08/31 04:21:02;;;;;;;0.85;0.70;;;22.20;56.20;;;;;;5074909;28;20220;-69
2022/08/31 04:23:28;;;;;;;0.80;0.70;;;22.20;56.20;;;;;;5073394;28;20174;-69
2022/08/31 04:25:55;;;;;;;0.68;0.68;;;22.20;56.20;;;;;;5074096;28;20177;-69
2022/08/31 04:28:20;;;;;;;0.95;0.95;;;22.20;56.20;;;;;;5074816;28;20175;-69
2022/08/31 04:30:47;;;;;;;1.00;0.88;;;22.20;56.20;;;;;;5073837;28;20170;-69
2022/08/31 04:33:12;;;;;;;0.75;0.75;;;22.20;56.20;;;;;;5074681;28;20300;-68
2022/08/31 04:35:39;;;;;;;0.80;0.80;;;22.20;56.20;;;;;;5074565;28;20182;-69
2022/08/31 04:38:04;;;;;;;0.50;0.50;;;22.20;56.20;;;;;;5073174;28;20591;-70
2022/08/31 04:40:30;;;;;;;0.73;0.70;;;22.10;56.10;;;;;;5074395;28;20231;-70
2022/08/31 04:42:55;;;;;;;0.63;0.63;;;22.20;56.20;;;;;;5073188;28;20220;-70
2022/08/31 04:45:22;;;;;;;0.82;0.65;;;22.20;56.20;;;;;;5054923;28;20229;-69
2022/08/31 04:47:48;;;;;;;0.70;0.70;;;22.20;56.20;;;;;;5074241;28;20186;-70
2022/08/31 04:50:15;;;;;;;0.90;0.90;;;22.10;56.80;;;;;;5073520;28;20682;-69
2022/08/31 04:52:41;;;;;;;0.68;0.68;;;22.10;56.20;;;;;;5074380;28;20583;-69
2022/08/31 04:55:07;;;;;;;0.80;0.70;;;22.10;56.10;;;;;;5074158;28;20166;-68
2022/08/31 04:57:34;;;;;;;0.85;0.65;;;22.10;56.20;;;;;;5073244;28;21002;-69
2022/08/31 04:59:59;;;;;;;0.85;0.70;;;22.10;56.10;;;;;;5073986;28;20212;-69
2022/08/31 05:02:25;;;;;;;0.65;0.52;;;22.10;56.20;;;;;;5073837;28;20174;-69
2022/08/31 05:04:51;;;;;;;0.65;0.65;;;22.10;56.20;;;;;;5072563;28;20209;-71
2022/08/31 05:07:16;;;;;;;0.90;0.90;;;22.10;56.20;;;;;;5073542;28;20167;-70
2022/08/31 05:09:42;;;;;;;0.80;0.80;;;22.10;56.10;;;;;;5073553;28;20179;-69
2022/08/31 05:12:07;;;;;;;0.52;0.52;;;22.10;56.10;;;;;;5072957;28;20163;-69
2022/08/31 05:14:34;;;;;;;0.70;0.70;;;22.10;56.10;;;;;;5073422;28;20265;-70
2022/08/31 05:17:00;;;;;;;0.80;0.65;;;22.10;56.10;;;;;;5073687;28;20186;-71
2022/08/31 05:19:25;;;;;;;1.15;1.10;;;22.10;56.10;;;;;;5072656;28;20206;-70
2022/08/31 05:21:51;;;;;;;0.60;0.60;;;22.10;56.10;;;;;;5073479;28;20174;-70
2022/08/31 05:24:19;;;;;;;1.10;0.70;;;22.10;56.10;;;;;;5073460;28;20245;-70
2022/08/31 05:26:54;;;;;;;0.57;0.50;;;22.10;56.10;;;;;;5072464;28;20265;-70
2022/08/31 05:29:21;;;;;;;0.50;0.50;;;22.10;56.10;;;;;;5069327;28;20236;-69
2022/08/31 05:31:47;;;;;;;0.77;0.77;;;22.10;56.10;;;;;;5072922;28;20182;-69
2022/08/31 05:34:13;;;;;;;0.70;0.70;;;22.10;56.10;;;;;;5072269;28;20178;-69
2022/08/31 05:36:40;;;;;;;0.60;0.60;;;22.10;56.10;;;;;;5069562;28;20174;-71
2022/08/31 05:39:10;;;;;;;0.70;0.60;;;22.10;56.10;;;;;;5072947;28;20228;-70
2022/08/31 05:41:36;;;;;;;1.02;0.95;;;22.10;56.10;;;;;;5072146;28;20642;-71
2022/08/31 05:44:02;;;;;;;0.80;0.80;;;22.10;56.10;;;;;;5072987;28;20257;-72
2022/08/31 05:46:28;;;;;;;0.68;0.68;;;22.10;56.00;;;;;;5072661;28;20179;-71
2022/08/31 05:48:54;;;;;;;0.60;0.60;;;22.10;56.10;;;;;;5073171;28;20201;-71
2022/08/31 05:51:20;;;;;;;1.38;0.70;;;22.10;56.10;;;;;;5072863;28;20610;-69
2022/08/31 05:53:45;;;;;;;0.60;0.60;;;22.10;56.10;;;;;;5071995;28;20242;-69
2022/08/31 05:56:16;;;;;;;0.73;0.73;;;22.10;56.00;;;;;;5073020;28;20189;-68
2022/08/31 05:58:42;;;;;;;0.88;0.70;;;22.10;56.00;;;;;;5073005;28;20312;-70
2022/08/31 06:01:15;;;;;;;0.73;0.57;;;22.10;56.00;;;;;;5071945;28;20174;-70
2022/08/31 06:03:41;;;;;;;0.80;0.80;;;22.10;56.00;;;;;;5073150;28;20167;-71
2022/08/31 06:06:08;;;;;;;0.57;0.40;;;22.00;56.60;;;;;;5072646;28;20526;-70
2022/08/31 06:08:35;;;;;;;0.68;0.60;;;22.10;56.00;;;;;;5071893;28;20179;-69
2022/08/31 06:11:01;;;;;;;0.60;0.60;;;22.00;56.00;;;;;;5072835;28;20202;-68
2022/08/31 06:13:26;;;;;;;5.35;1.10;;;22.10;56.10;;;;;;5072219;28;20255;-72
2022/08/31 06:15:52;;;;;;;6.72;1.27;;;22.10;55.70;;;;;;5071841;28;20174;-65
2022/08/31 06:18:19;;;;;;;3.78;1.17;;;22.10;55.40;;;;;;5072757;28;20193;-66
2022/08/31 06:20:45;;;;;;;6.18;1.20;;;22.20;55.40;;;;;;5072119;28;20251;-65
2022/08/31 06:23:10;;;;;;;7.65;1.45;;;22.20;55.20;;;;;;5071605;28;20250;-64
2022/08/31 06:25:36;;;;;;;11.40;1.13;;;22.20;55.10;;;;;;5072351;28;20271;-63
2022/08/31 06:28:05;;;;;;;3.17;1.05;;;22.20;55.10;;;;;;5072092;28;20257;-63
2022/08/31 06:30:35;;;;;;;8.65;1.00;;;22.20;55.00;;;;;;5071816;28;20178;-65
2022/08/31 06:33:01;;;;;;;6.75;1.10;;;22.20;54.60;;;;;;5072327;28;20216;-66
2022/08/31 06:35:26;;;;;;;5.80;1.00;;;22.20;54.50;;;;;;5072104;28;20182;-65
2022/08/31 06:37:52;;;;;;;5.05;1.25;;;22.20;54.50;;;;;;5071145;28;20258;-65
2022/08/31 06:40:18;;;;;;;3.03;0.93;;;22.20;54.50;;;;;;5068765;28;20206;-65
2022/08/31 06:42:43;;;;;;;4.60;0.90;;;22.20;54.50;;;;;;5071596;28;20581;-67
2022/08/31 06:45:09;;;;;;;3.22;0.90;;;22.30;54.50;;;;;;5071953;28;20643;-66
2022/08/31 06:47:35;;;;;;;3.53;1.48;;;22.30;54.60;;;;;;5072001;28;20563;-65
2022/08/31 06:50:01;;;;;;;2.42;1.10;;;22.30;54.60;;;;;;5071665;28;20170;-65
2022/08/31 06:52:26;;;;;;;1.25;0.80;;;22.30;54.60;;;;;;5072367;28;20174;-64
2022/08/31 06:54:52;;;;;;;3.10;0.90;;;22.30;54.60;;;;;;5071962;28;20174;-62
2022/08/31 06:57:18;;;;;;;4.30;1.20;;;22.30;54.60;;;;;;5071564;28;20158;-65
2022/08/31 06:59:44;;;;;;;4.78;0.88;;;22.30;54.10;;;;;;5068003;28;20626;-64
2022/08/31 07:02:09;;;;;;;4.25;0.90;;;22.30;53.80;;;;;;5072320;28;20175;-63
2022/08/31 07:04:37;;;;;;;9.18;1.27;;;22.30;53.30;;;;;;5071364;28;20170;-66
2022/08/31 07:07:03;;;;;;;6.65;1.13;;;22.30;53.00;;;;;;5073306;28;20166;-64
2022/08/31 07:09:29;;;;;;;7.47;1.50;;;22.30;53.20;;;;;;5075964;28;20182;-64
2022/08/31 07:11:54;;;;;;;3.90;0.90;;;22.30;53.20;;;;;;5074671;28;20193;-63
2022/08/31 07:14:24;;;;;;;4.05;1.45;;;22.30;53.20;;;;;;5076344;28;20166;-63
2022/08/31 07:16:52;;;;;;;7.45;1.55;;;22.30;53.40;;;;;;5071213;28;20174;-64
2022/08/31 07:19:17;;;;;;;4.03;1.38;;;22.30;53.40;;;;;;5075434;28;20218;-64
2022/08/31 07:21:48;;;;;;;8.88;1.83;;;22.30;53.50;;;;;;5075632;28;20566;-64
2022/08/31 07:24:15;;;;;;;7.70;2.20;;;22.30;53.60;;;;;;5072608;28;20643;-64
2022/08/31 07:26:45;;;;;;;9.00;1.70;;;22.30;53.70;;;;;;5075021;28;20174;-63
2022/08/31 07:29:13;;;;;;;3.10;1.30;;;22.40;53.70;;;;;;5075638;28;20178;-64
2022/08/31 07:31:41;;;;;;;3.05;1.35;;;22.40;53.60;;;;;;5075685;28;20198;-63
2022/08/31 07:34:09;;;;;;;3.97;1.25;;;22.40;53.50;;;;;;5074838;28;20179;-64
2022/08/31 07:42:07;;;;;;;5.13;1.23;;;22.40;53.60;;;;;;5075867;28;20171;-64
2022/08/31 07:42:08;;;;;;;5.88;1.40;;;22.40;53.60;;;;;;5075498;28;20178;-64
2022/08/31 07:44:33;;;;;;;1.73;0.77;;;22.40;53.60;;;;;;5071569;28;20689;-64
2022/08/31 07:46:59;;;;;;;3.72;1.20;;;22.40;53.60;;;;;;5074783;28;20174;-64
2022/08/31 07:49:25;;;;;;;3.42;1.08;;;22.40;53.80;;;;;;5075312;28;20186;-64
2022/08/31 07:51:50;;;;;;;3.72;1.30;;;22.40;53.70;;;;;;5071533;28;20239;-63
2022/08/31 07:54:19;;;;;;;3.08;1.00;;;22.50;53.70;;;;;;5074856;28;20613;-63
2022/08/31 07:56:46;;;;;;;3.58;1.50;;;22.50;53.70;;;;;;5075309;28;20216;-64
2022/08/31 07:59:15;;;;;;;2.58;1.10;;;22.50;53.60;;;;;;5074670;28;20708;-64
2022/08/31 08:01:41;;;;;;;2.75;1.27;;;22.50;53.60;;;;;;5074662;28;20178;-64
2022/08/31 08:04:07;;;;;;;2.17;0.98;;;22.50;54.20;;;;;;5074792;28;20644;-64
2022/08/31 08:06:33;;;;;;;3.00;1.30;;;22.50;53.50;;;;;;5075154;28;20176;-65
2022/08/31 08:09:05;;;;;;;2.30;1.42;;;22.60;53.50;;;;;;5074196;28;20174;-65
2022/08/31 08:11:31;;;;;;;3.28;1.10;;;22.60;53.50;;;;;;5074946;28;20219;-64
2022/08/31 08:13:57;;;;;;;2.70;1.48;;;22.60;53.40;;;;;;5075109;28;20500;-64
2022/08/31 08:16:23;;;;;;;4.63;1.70;;;22.60;53.40;;;;;;5074321;28;20194;-64
2022/08/31 08:18:49;;;;;;;1.23;0.85;;;22.60;53.40;;;;;;5074385;28;20653;-64
2022/08/31 08:21:14;;;;;;;4.18;1.08;;;22.60;53.40;;;;;;5074389;28;20223;-65
2022/08/31 08:23:40;;;;;;;2.38;1.00;;;22.70;53.40;;;;;;5074868;28;20272;-64
2022/08/31 08:26:07;;;;;;;2.28;1.08;;;22.70;53.40;;;;;;5070854;28;20162;-64
2022/08/31 08:28:36;;;;;;;3.85;1.02;;;22.70;53.40;;;;;;5074423;28;20205;-64
2022/08/31 08:31:01;;;;;;;1.85;1.20;;;22.70;53.40;;;;;;5074604;28;20181;-64
2022/08/31 08:33:28;;;;;;;3.22;1.10;;;22.70;53.30;;;;;;5074699;28;20171;-64
2022/08/31 08:35:57;;;;;;;2.80;0.90;;;22.70;53.30;;;;;;5073727;28;20249;-64
2022/08/31 08:38:29;;;;;;;2.25;0.98;;;22.80;53.30;;;;;;5074173;28;20202;-64
2022/08/31 08:40:55;;;;;;;2.10;1.13;;;22.80;53.30;;;;;;5074578;28;20170;-64
2022/08/31 08:43:22;;;;;;;3.30;1.20;;;22.80;53.30;;;;;;5055655;28;20559;-64
2022/08/31 08:45:50;;;;;;;2.88;1.15;;;22.80;53.20;;;;;;5056562;28;20233;-64
2022/08/31 08:48:16;;;;;;;2.25;1.15;;;22.90;53.20;;;;;;5056819;28;20578;-64
2022/08/31 08:50:41;;;;;;;1.98;1.20;;;22.90;53.20;;;;;;5055447;28;20668;-64
2022/08/31 08:53:09;;;;;;;1.02;0.80;;;23.00;53.20;;;;;;5074106;28;20223;-64
2022/08/31 08:55:36;;;;;;;2.10;1.20;;;22.90;53.10;;;;;;5056736;28;20171;-64
2022/08/31 08:58:04;;;;;;;1.85;1.00;;;23.00;53.10;;;;;;5073483;28;20179;-64
2022/08/31 09:00:30;;;;;;;1.65;0.93;;;23.00;53.00;;;;;;5073995;28;20170;-64
2022/08/31 09:03:11;;;;;;;1.88;1.05;;;23.00;53.10;;;;;;5073919;28;20211;-65
2022/08/31 09:05:49;;;;;;;1.77;0.90;;;22.90;53.20;;;;;;5039464;28;20175;-64
2022/08/31 09:08:53;;;;;;;2.17;0.90;;;22.90;53.30;;;;;;5053056;28;20220;-65
2022/08/31 09:11:53;;;;;;;1.65;1.10;;;23.00;53.30;;;;;;5071990;28;20257;-64
2022/08/31 09:14:47;;;;;;;0.82;0.70;;;23.00;53.10;;;;;;5071877;28;20170;-64
2022/08/31 09:17:23;;;;;;;1.60;0.98;;;23.00;53.00;;;;;;5055134;28;20174;-64
2022/08/31 09:19:59;;;;;;;1.92;0.80;;;23.10;53.10;;;;;;5051445;28;20194;-65
2022/08/31 09:22:26;;;;;;;2.65;0.82;;;23.10;53.00;;;;;;5073499;28;20227;-64
2022/08/31 09:24:55;;;;;;;1.50;0.90;;;23.10;52.90;;;;;;5072567;28;20716;-64
2022/08/31 09:27:46;;;;;;;1.42;0.90;;;23.20;53.00;;;;;;5073879;28;20228;-64
2022/08/31 09:30:33;;;;;;;1.75;0.93;;;23.20;53.00;;;;;;5072793;28;20181;-64
2022/08/31 09:32:59;;;;;;;2.63;0.95;;;23.10;52.90;;;;;;5053360;28;20163;-64
2022/08/31 09:35:41;;;;;;;1.27;0.70;;;23.10;53.00;;;;;;5073562;28;20661;-64
2022/08/31 09:38:10;;;;;;;2.42;1.00;;;23.20;53.00;;;;;;5073311;28;20193;-65
2022/08/31 09:40:43;;;;;;;1.95;0.70;;;23.20;53.00;;;;;;5072825;28;20577;-64
2022/08/31 09:43:12;;;;;;;0.90;0.85;;;23.20;53.00;;;;;;5071329;28;20694;-65
2022/08/31 09:45:46;;;;;;;2.40;0.80;;;23.30;52.90;;;;;;5072557;28;20170;-65
2022/08/31 09:48:12;;;;;;;1.30;0.82;;;23.20;52.80;;;;;;5055564;28;20190;-64
2022/08/31 09:50:43;;;;;;;0.80;0.70;;;23.30;52.80;;;;;;5055346;28;20167;-64
2022/08/31 09:56:12;;;;;;;1.85;1.00;;;23.30;52.80;;;;;;5071032;28;20753;-64
2022/08/31 09:58:42;;;;;;;1.33;0.70;;;23.30;52.70;;;;;;5072889;28;20185;-64
2022/08/31 10:01:17;;;;;;;2.15;0.80;;;23.40;52.70;;;;;;5071968;28;20658;-65
2022/08/31 10:03:44;;;;;;;0.73;0.60;;;23.40;52.70;;;;;;5055983;28;20166;-64
2022/08/31 10:06:36;;;;;;;1.00;0.90;;;23.40;53.30;;;;;;5055407;28;20249;-65
2022/08/31 10:09:03;;;;;;;2.08;1.05;;;23.50;52.60;;;;;;5069630;28;20503;-64
2022/08/31 10:11:30;;;;;;;0.98;0.63;;;23.40;52.60;;;;;;5054886;28;20175;-64
2022/08/31 10:14:06;;;;;;;1.10;0.90;;;23.50;52.60;;;;;;5053928;28;20648;-64
2022/08/31 10:16:41;;;;;;;1.33;0.73;;;23.50;52.50;;;;;;5055222;28;20186;-64
2022/08/31 10:19:10;;;;;;;2.25;0.85;;;23.50;52.50;;;;;;5072471;28;20272;-64
2022/08/31 10:21:50;;;;;;;2.10;0.80;;;23.50;52.50;;;;;;5054239;28;20193;-64
2022/08/31 10:24:27;;;;;;;0.98;0.77;;;23.50;52.50;;;;;;5054718;28;20214;-64
2022/08/31 10:27:16;;;;;;;0.90;0.60;;;23.60;52.50;;;;;;5072378;28;20640;-64
2022/08/31 10:29:55;;;;;;;1.20;0.65;;;23.60;52.40;;;;;;5070612;28;20184;-64
2022/08/31 10:32:26;;;;;;;1.27;0.98;;;23.60;52.40;;;;;;5053171;28;20174;-64
2022/08/31 10:35:18;;;;;;;1.38;0.57;;;23.60;52.40;;;;;;5067950;28;20174;-65
2022/08/31 10:37:49;;;;;;;1.10;1.00;;;23.70;52.50;;;;;;5051579;28;20169;-64
2022/08/31 10:40:23;;;;;;;0.63;0.63;;;23.60;52.30;;;;;;5072407;28;20204;-64
2022/08/31 10:43:07;;;;;;;0.93;0.77;;;23.70;52.30;;;;;;5053860;28;20222;-65
2022/08/31 10:45:33;;;;;;;2.30;1.40;;;23.60;52.30;;;;;;5072338;28;20193;-64
2022/08/31 10:48:02;;;;;;;1.85;0.90;;;23.60;52.30;;;;;;5054165;28;20170;-64
2022/08/31 10:50:44;;;;;;;0.88;0.60;;;23.60;52.30;;;;;;5071802;28;20238;-63
2022/08/31 10:53:31;;;;;;;2.33;1.02;;;23.70;52.30;;;;;;5068775;28;20304;-64
2022/08/31 10:56:02;;;;;;;0.85;0.63;;;23.70;52.30;;;;;;5069001;28;20170;-64
2022/08/31 10:58:57;;;;;;;1.13;0.77;;;23.70;52.30;;;;;;5055025;28;20198;-64
2022/08/31 11:01:22;;;;;;;0.70;0.70;;;23.70;52.20;;;;;;5046113;28;20174;-64
2022/08/31 11:03:55;;;;;;;0.98;0.85;;;23.70;52.20;;;;;;5071319;28;20527;-64
2022/08/31 11:06:27;;;;;;;1.13;0.50;;;23.70;52.20;;;;;;5054300;28;20309;-64
2022/08/31 11:09:14;;;;;;;2.05;1.10;;;23.70;52.20;;;;;;5054487;28;20174;-64
2022/08/31 11:11:44;;;;;;;1.02;0.70;;;23.70;52.20;;;;;;5054440;28;20173;-64
2022/08/31 11:14:27;;;;;;;0.68;0.68;;;23.70;52.10;;;;;;5068369;28;20194;-64
2022/08/31 11:17:21;;;;;;;0.98;0.75;;;23.70;52.10;;;;;;5050549;28;20186;-64
2022/08/31 11:20:23;;;;;;;0.93;0.60;;;23.80;52.20;;;;;;5067701;28;20245;-64
2022/08/31 11:23:11;;;;;;;0.88;0.70;;;23.80;52.10;;;;;;5068909;28;20227;-64
2022/08/31 11:25:49;;;;;;;1.60;0.90;;;23.90;52.10;;;;;;5050657;28;20344;-64
2022/08/31 11:28:48;;;;;;;0.85;0.70;;;23.90;52.10;;;;;;5050500;28;20528;-64
2022/08/31 11:31:22;;;;;;;0.95;0.60;;;23.90;51.90;;;;;;5068249;28;20644;-64
2022/08/31 11:33:53;;;;;;;0.80;0.80;;;23.90;51.90;;;;;;5071897;28;20255;-63
2022/08/31 11:36:41;;;;;;;1.20;1.00;;;23.90;51.80;;;;;;5054769;28;20609;-64
2022/08/31 11:39:07;;;;;;;0.85;0.75;;;24.00;51.90;;;;;;5067849;28;20555;-64
2022/08/31 11:41:38;;;;;;;2.97;0.82;;;24.00;51.80;;;;;;5071831;28;20174;-64
2022/08/31 11:44:07;;;;;;;2.50;0.70;;;23.90;51.80;;;;;;5071418;28;20178;-65
2022/08/31 11:46:33;;;;;;;1.27;0.70;;;23.90;51.80;;;;;;5067486;28;20758;-64
2022/08/31 11:48:58;;;;;;;1.02;0.70;;;23.90;52.00;;;;;;5071825;28;20254;-64
2022/08/31 11:51:43;;;;;;;1.42;0.85;;;23.90;51.90;;;;;;5071671;28;20170;-63
2022/08/31 11:54:25;;;;;;;0.82;0.63;;;24.00;51.90;;;;;;5070797;28;20574;-64
2022/08/31 11:56:53;;;;;;;1.33;0.70;;;24.00;51.70;;;;;;5075174;28;20194;-64
2022/08/31 11:59:26;;;;;;;0.70;0.70;;;24.00;51.60;;;;;;5057125;28;20199;-64
2022/08/31 12:01:56;;;;;;;0.90;0.70;;;24.10;51.60;;;;;;5057828;28;20181;-65
2022/08/31 12:04:40;;;;;;;0.85;0.73;;;24.10;51.50;;;;;;5057508;28;20179;-65
2022/08/31 12:07:07;;;;;;;0.95;0.70;;;24.10;51.60;;;;;;5072594;28;20501;-64
2022/08/31 12:09:53;;;;;;;0.70;0.70;;;24.10;51.50;;;;;;5057486;28;20162;-64
2022/08/31 12:12:56;;;;;;;1.38;1.02;;;24.10;51.50;;;;;;5055292;28;20177;-65
2022/08/31 12:15:59;;;;;;;0.70;0.70;;;24.20;51.50;;;;;;5073522;28;20733;-64
2022/08/31 12:18:46;;;;;;;0.95;0.80;;;24.20;51.50;;;;;;5056080;28;20174;-64
2022/08/31 12:24:21;;;;;;;1.85;0.88;;;24.20;51.30;;;;;;5072980;28;20217;-64
2022/08/31 12:27:03;;;;;;;1.00;0.70;;;24.20;51.30;;;;;;5054376;28;20176;-64
2022/08/31 12:29:33;;;;;;;0.50;0.50;;;24.20;51.20;;;;;;5058763;28;20245;-64
2022/08/31 12:32:19;;;;;;;1.70;0.60;;;24.00;51.40;;;;;;5074487;28;20175;-64
2022/08/31 12:34:48;;;;;;;1.23;0.75;;;24.00;51.50;;;;;;5057055;28;20171;-64
2022/08/31 12:37:18;;;;;;;0.85;0.63;;;24.00;51.60;;;;;;5056894;28;20637;-64
2022/08/31 12:39:44;;;;;;;1.45;0.77;;;23.90;51.60;;;;;;5056207;28;20206;-64
2022/08/31 12:42:09;;;;;;;1.55;0.80;;;23.90;51.70;;;;;;5073859;28;20229;-65
2022/08/31 12:44:37;;;;;;;1.30;0.73;;;23.90;51.70;;;;;;5056622;28;20178;-64
2022/08/31 12:47:51;;;;;;;1.00;0.90;;;23.90;51.60;;;;;;5056661;28;20166;-64
2022/08/31 12:50:35;;;;;;;1.20;0.77;;;24.00;51.60;;;;;;5006227;28;20174;-65
2022/08/31 12:53:18;;;;;;;0.63;0.63;;;24.10;51.40;;;;;;5052795;28;20175;-64
2022/08/31 12:55:55;;;;;;;0.77;0.73;;;24.20;51.30;;;;;;5055330;28;20648;-64
2022/08/31 12:58:52;;;;;;;1.13;0.80;;;24.10;51.40;;;;;;5054517;28;20576;-64
2022/08/31 13:01:20;;;;;;;0.75;0.75;;;24.00;51.50;;;;;;5072828;28;20175;-65
2022/08/31 13:03:48;;;;;;;0.80;0.80;;;24.00;51.50;;;;;;5054947;28;20178;-64
2022/08/31 13:06:17;;;;;;;1.88;1.00;;;24.10;51.40;;;;;;5056000;28;20167;-65
2022/08/31 13:08:45;;;;;;;0.63;0.63;;;24.20;51.30;;;;;;5055963;28;20632;-64
2022/08/31 13:11:34;;;;;;;1.60;0.90;;;24.30;51.10;;;;;;5073258;28;20224;-64
2022/08/31 13:14:21;;;;;;;0.82;0.65;;;24.40;51.00;;;;;;5062726;28;20182;-64